Time;durP1;ratioP1;P1;durP2;ratioP2;P2;SDS_P1;SDS_P2;PMS_P1;PMS_P2;Temp;Humidity;BMP_temperature;BMP_pressure;BME280_temperature;BME280_humidity;BME280_pressure;Samples;Min_cycle;Max_cycle;Signal;HPM_P1;HPM_P2
2022/12/19 00:01:22;;;;;;;12.77;6.18;;;0.70;99.90;;;;;;5052992;28;20457;-66
2022/12/19 00:03:49;;;;;;;13.57;6.93;;;0.80;99.90;;;;;;5052915;28;20452;-66
2022/12/19 00:06:16;;;;;;;14.48;8.15;;;0.80;99.90;;;;;;5052528;28;20591;-64
2022/12/19 00:08:44;;;;;;;16.17;7.13;;;0.80;99.90;;;;;;5052830;28;20045;-63
2022/12/19 00:11:12;;;;;;;16.13;8.23;;;0.70;99.90;;;;;;5052847;28;20036;-64
2022/12/19 00:13:38;;;;;;;14.25;7.13;;;0.70;99.90;;;;;;5052825;28;20080;-64
2022/12/19 00:16:07;;;;;;;20.70;8.45;;;0.80;99.90;;;;;;5052529;28;20037;-64
2022/12/19 00:18:32;;;;;;;13.65;5.70;;;0.80;99.90;;;;;;5034625;28;20412;-64
2022/12/19 00:21:01;;;;;;;16.70;8.95;;;0.70;99.90;;;;;;5034587;28;20041;-64
2022/12/19 00:23:28;;;;;;;12.48;8.25;;;0.80;99.90;;;;;;5053034;28;20102;-64
2022/12/19 00:25:54;;;;;;;17.60;9.50;;;0.80;99.90;;;;;;5034628;28;20452;-64
2022/12/19 00:28:19;;;;;;;11.60;7.28;;;0.80;99.90;;;;;;5034591;28;20072;-64
2022/12/19 00:30:45;;;;;;;19.80;9.48;;;0.80;99.90;;;;;;5036807;28;20511;-64
2022/12/19 00:33:11;;;;;;;20.95;10.15;;;0.80;99.90;;;;;;5056543;28;20041;-64
2022/12/19 00:35:36;;;;;;;16.33;8.40;;;0.80;99.90;;;;;;5056470;28;20036;-64
2022/12/19 00:38:02;;;;;;;14.80;8.00;;;0.80;99.90;;;;;;5056402;28;20048;-64
2022/12/19 00:40:28;;;;;;;15.23;7.65;;;0.90;99.90;;;;;;5056310;28;20445;-64
2022/12/19 00:42:54;;;;;;;16.70;9.23;;;0.90;99.90;;;;;;5056408;28;20120;-64
2022/12/19 00:45:20;;;;;;;17.17;8.38;;;0.90;99.90;;;;;;5056379;28;20387;-64
2022/12/19 00:47:45;;;;;;;18.90;8.32;;;0.90;99.90;;;;;;5056298;28;20033;-64
2022/12/19 00:50:11;;;;;;;18.75;7.93;;;0.90;99.90;;;;;;5056268;28;20039;-64
2022/12/19 00:52:36;;;;;;;15.75;8.23;;;1.00;99.90;;;;;;5056193;28;20072;-63
2022/12/19 00:55:02;;;;;;;17.73;9.27;;;1.00;99.90;;;;;;5056160;28;20044;-64
2022/12/19 00:57:27;;;;;;;21.00;8.15;;;1.00;99.90;;;;;;5055969;28;20507;-64
2022/12/19 00:59:53;;;;;;;20.20;8.35;;;1.00;99.90;;;;;;5038199;28;20118;-64
2022/12/19 01:02:19;;;;;;;16.80;7.80;;;1.00;99.90;;;;;;5021751;28;20044;-64
2022/12/19 01:04:44;;;;;;;13.77;7.30;;;1.10;99.90;;;;;;5055706;28;20041;-64
2022/12/19 01:07:10;;;;;;;14.35;8.05;;;1.10;99.90;;;;;;5055932;28;20142;-64
2022/12/19 01:09:36;;;;;;;8.70;4.70;;;1.10;99.90;;;;;;5055596;28;20045;-64
2022/12/19 01:14:48;;;;;;;14.85;6.82;;;1.20;99.90;;;;;;5037538;28;20045;-64
2022/12/19 01:17:14;;;;;;;19.25;8.35;;;1.20;99.90;;;;;;5037578;28;20613;-64
2022/12/19 01:19:39;;;;;;;17.83;7.85;;;1.20;99.90;;;;;;5055431;28;20515;-64
2022/12/19 01:22:05;;;;;;;21.05;9.63;;;1.20;99.90;;;;;;5055378;28;20078;-64
2022/12/19 01:24:30;;;;;;;15.73;7.85;;;1.20;99.90;;;;;;5055554;28;20044;-65
2022/12/19 01:26:56;;;;;;;18.88;9.13;;;1.30;99.90;;;;;;5055560;28;20041;-65
2022/12/19 01:29:21;;;;;;;20.50;7.63;;;1.20;99.90;;;;;;5055494;28;20405;-65
2022/12/19 01:31:47;;;;;;;13.82;8.25;;;1.20;99.90;;;;;;5055459;28;20396;-65
2022/12/19 01:34:12;;;;;;;14.90;7.22;;;1.20;99.90;;;;;;5055448;28;20044;-65
2022/12/19 01:36:38;;;;;;;15.45;7.57;;;1.20;99.90;;;;;;5037457;28;20051;-66
2022/12/19 01:39:04;;;;;;;18.30;8.18;;;1.20;99.90;;;;;;5055355;28;20124;-66
2022/12/19 01:41:29;;;;;;;19.40;9.45;;;1.30;99.90;;;;;;5054603;28;20091;-66
2022/12/19 01:43:58;;;;;;;17.00;9.13;;;1.30;99.90;;;;;;5055267;28;20484;-65
2022/12/19 01:46:37;;;;;;;19.35;8.85;;;1.20;99.90;;;;;;5055222;28;20036;-65
2022/12/19 01:49:05;;;;;;;16.80;7.78;;;1.30;99.90;;;;;;5036982;28;20087;-66
2022/12/19 01:51:39;;;;;;;17.33;8.77;;;1.20;99.90;;;;;;5037272;28;20039;-66
2022/12/19 01:54:07;;;;;;;20.30;9.80;;;;;;;;;;5037292;28;20033;-69
2022/12/19 01:56:37;;;;;;;17.92;8.68;;;1.40;99.90;;;;;;5037056;28;20037;-65
2022/12/19 01:59:08;;;;;;;20.27;8.67;;;1.40;99.90;;;;;;5036830;28;20040;-65
2022/12/19 02:01:34;;;;;;;20.75;8.18;;;1.40;99.90;;;;;;5054972;28;20476;-66
2022/12/19 02:04:01;;;;;;;16.02;7.50;;;1.40;99.90;;;;;;5054921;28;20036;-65
2022/12/19 02:06:28;;;;;;;15.85;7.63;;;1.50;99.90;;;;;;5036561;28;20060;-66
2022/12/19 02:08:55;;;;;;;11.10;6.65;;;1.50;99.90;;;;;;5054823;28;20429;-65
2022/12/19 02:11:20;;;;;;;17.10;7.93;;;1.50;99.90;;;;;;5036830;28;20117;-66
2022/12/19 02:13:46;;;;;;;18.90;8.40;;;1.50;99.90;;;;;;5054705;28;20044;-66
2022/12/19 02:16:40;;;;;;;17.95;7.80;;;1.50;99.90;;;;;;5036515;28;20512;-65
2022/12/19 02:19:29;;;;;;;16.88;8.68;;;1.50;99.90;;;;;;5054557;28;20041;-66
2022/12/19 02:22:05;;;;;;;17.15;7.80;;;1.50;99.90;;;;;;5054505;28;20033;-66
2022/12/19 02:24:56;;;;;;;16.50;7.60;;;1.50;99.90;;;;;;5054388;28;20040;-65
2022/12/19 02:27:33;;;;;;;13.70;6.75;;;1.60;99.90;;;;;;5054085;28;20052;-66
2022/12/19 02:30:09;;;;;;;16.52;7.72;;;1.60;99.90;;;;;;5036214;28;20049;-65
2022/12/19 02:32:56;;;;;;;16.77;8.23;;;1.60;99.90;;;;;;5054285;28;20110;-65
2022/12/19 02:35:45;;;;;;;11.63;7.85;;;1.50;99.90;;;;;;5053949;28;20056;-65
2022/12/19 02:38:35;;;;;;;11.05;6.53;;;1.50;99.90;;;;;;5035934;28;20040;-66
2022/12/19 02:41:14;;;;;;;15.38;8.57;;;1.60;99.90;;;;;;5022058;28;20092;-66
2022/12/19 02:43:45;;;;;;;19.40;9.85;;;1.50;99.90;;;;;;5054065;28;20109;-66
2022/12/19 02:46:11;;;;;;;20.70;8.98;;;1.50;99.90;;;;;;5054108;28;20443;-66
2022/12/19 02:48:37;;;;;;;11.40;6.95;;;1.50;99.90;;;;;;5019378;28;20433;-66
2022/12/19 02:51:03;;;;;;;19.67;9.52;;;1.50;99.90;;;;;;5036036;28;20051;-66
2022/12/19 02:53:28;;;;;;;17.38;8.48;;;1.50;99.90;;;;;;5035054;28;20041;-66
2022/12/19 02:55:57;;;;;;;17.45;8.85;;;1.50;99.90;;;;;;5035765;28;20044;-66
2022/12/19 02:58:25;;;;;;;10.95;7.15;;;1.50;99.90;;;;;;5053748;28;20063;-66
2022/12/19 03:01:02;;;;;;;18.20;8.65;;;1.50;99.90;;;;;;5035907;28;20123;-66
2022/12/19 03:03:36;;;;;;;16.05;8.55;;;1.50;99.90;;;;;;5053444;28;20095;-66
2022/12/19 03:06:04;;;;;;;19.75;8.38;;;1.50;99.90;;;;;;5053318;28;20122;-66
2022/12/19 03:08:51;;;;;;;17.98;8.77;;;1.50;99.90;;;;;;5053593;28;20045;-66
2022/12/19 03:11:17;;;;;;;12.85;8.23;;;1.50;99.90;;;;;;5053289;28;20041;-66
2022/12/19 03:13:46;;;;;;;21.10;8.18;;;1.50;99.90;;;;;;5035599;28;20045;-66
2022/12/19 03:16:13;;;;;;;19.25;8.93;;;1.50;99.90;;;;;;5053543;28;20029;-66
2022/12/19 03:18:39;;;;;;;22.15;9.95;;;1.50;99.90;;;;;;5053367;28;20060;-66
2022/12/19 03:21:30;;;;;;;19.27;9.20;;;1.50;99.90;;;;;;5053405;28;20029;-66
2022/12/19 03:23:57;;;;;;;18.27;9.57;;;1.50;99.90;;;;;;5053415;28;20498;-67
2022/12/19 03:26:27;;;;;;;18.15;8.93;;;1.50;99.90;;;;;;5053326;28;20040;-66
2022/12/19 03:29:14;;;;;;;21.02;10.05;;;1.50;99.90;;;;;;5035126;28;20379;-66
2022/12/19 03:31:41;;;;;;;21.48;8.85;;;1.50;99.90;;;;;;5035332;28;20049;-66
2022/12/19 03:34:17;;;;;;;16.40;8.07;;;1.60;99.90;;;;;;5053253;28;20395;-66
2022/12/19 03:36:48;;;;;;;19.77;8.63;;;1.60;99.90;;;;;;5053118;28;20440;-66
2022/12/19 03:39:15;;;;;;;22.55;9.20;;;1.60;99.90;;;;;;5053201;28;20037;-66
2022/12/19 03:44:35;;;;;;;18.00;7.57;;;1.60;99.90;;;;;;5053067;28;20076;-67
2022/12/19 03:47:25;;;;;;;16.38;8.77;;;1.70;99.90;;;;;;5052810;28;20049;-66
2022/12/19 03:49:50;;;;;;;17.27;8.70;;;1.70;99.90;;;;;;5014351;28;20063;-67
2022/12/19 03:52:46;;;;;;;15.80;8.40;;;1.80;99.90;;;;;;5052791;28;20488;-66
2022/12/19 03:55:25;;;;;;;12.45;7.63;;;1.80;99.90;;;;;;5053107;28;20395;-67
2022/12/19 03:58:06;;;;;;;16.77;9.77;;;1.90;99.90;;;;;;5034789;28;20045;-66
2022/12/19 04:00:35;;;;;;;18.55;9.13;;;1.90;99.90;;;;;;5052928;28;20077;-66
2022/12/19 04:03:03;;;;;;;20.33;9.70;;;1.90;99.90;;;;;;5052669;28;20120;-66
2022/12/19 04:05:29;;;;;;;16.17;7.45;;;1.90;99.90;;;;;;5054553;28;20496;-68
2022/12/19 04:07:59;;;;;;;14.32;6.90;;;1.90;99.90;;;;;;5056780;28;20103;-67
2022/12/19 04:10:27;;;;;;;19.10;10.00;;;2.00;99.90;;;;;;5057053;28;20404;-66
2022/12/19 04:13:08;;;;;;;20.13;9.65;;;2.00;99.90;;;;;;5056727;28;20033;-66
2022/12/19 04:15:50;;;;;;;16.92;8.75;;;2.10;99.90;;;;;;5056887;28;20254;-67
2022/12/19 04:18:17;;;;;;;11.77;6.63;;;2.20;99.90;;;;;;5056809;28;20041;-67
2022/12/19 04:20:49;;;;;;;14.75;9.10;;;2.20;99.90;;;;;;5056483;28;20041;-67
2022/12/19 04:23:38;;;;;;;16.02;8.35;;;2.30;99.90;;;;;;5022449;28;20041;-67
2022/12/19 04:26:04;;;;;;;14.52;6.38;;;2.40;99.90;;;;;;5038764;28;20508;-68
2022/12/19 04:28:53;;;;;;;19.98;8.23;;;2.40;99.90;;;;;;5056729;28;20033;-67
2022/12/19 04:31:20;;;;;;;25.27;9.50;;;2.50;99.90;;;;;;5038394;28;20055;-67
2022/12/19 04:33:45;;;;;;;20.50;8.68;;;2.60;99.90;;;;;;5056185;28;20103;-68
2022/12/19 04:36:11;;;;;;;18.70;9.88;;;2.60;99.90;;;;;;5038483;28;20052;-68
2022/12/19 04:38:37;;;;;;;18.42;8.77;;;2.60;99.90;;;;;;5038262;28;20041;-69
2022/12/19 04:41:03;;;;;;;18.70;10.02;;;2.70;99.90;;;;;;5038591;28;20092;-69
2022/12/19 04:43:28;;;;;;;22.30;6.75;;;2.70;99.90;;;;;;5038265;28;20036;-69
2022/12/19 04:45:55;;;;;;;18.38;8.45;;;3.00;99.90;;;;;;5038236;28;20480;-69
2022/12/19 04:48:20;;;;;;;19.63;9.15;;;2.70;99.90;;;;;;5056331;28;20037;-69
2022/12/19 04:50:46;;;;;;;27.90;11.02;;;2.80;99.90;;;;;;5038085;28;20402;-67
2022/12/19 04:53:11;;;;;;;23.90;11.10;;;2.90;99.90;;;;;;5055900;28;20076;-68
2022/12/19 04:55:38;;;;;;;18.92;8.82;;;2.90;99.90;;;;;;5056183;28;20044;-68
2022/12/19 04:58:05;;;;;;;19.30;8.57;;;2.90;99.90;;;;;;5037877;28;20124;-68
2022/12/19 05:00:31;;;;;;;22.05;10.32;;;3.00;99.90;;;;;;5038196;28;20111;-70
2022/12/19 05:02:57;;;;;;;22.85;8.70;;;2.90;99.90;;;;;;5055991;28;20040;-69
2022/12/19 05:05:22;;;;;;;20.75;9.88;;;3.00;99.90;;;;;;5037672;28;20511;-70
2022/12/19 05:07:48;;;;;;;17.80;9.10;;;3.00;99.90;;;;;;5037826;28;20064;-69
2022/12/19 05:10:14;;;;;;;18.05;8.93;;;3.10;99.90;;;;;;5055881;28;20060;-69
2022/12/19 05:12:39;;;;;;;15.23;7.85;;;3.10;99.90;;;;;;5055846;28;20451;-69
2022/12/19 05:15:05;;;;;;;7.97;5.65;;;3.10;99.90;;;;;;5037611;28;20098;-68
2022/12/19 05:17:31;;;;;;;25.60;10.55;;;3.10;99.90;;;;;;5054244;28;20135;-69
2022/12/19 05:19:56;;;;;;;16.45;9.13;;;3.10;99.90;;;;;;5055391;28;20072;-69
2022/12/19 05:22:22;;;;;;;9.88;5.40;;;3.10;99.90;;;;;;5037891;28;20033;-72
2022/12/19 05:24:47;;;;;;;27.25;11.23;;;3.20;99.90;;;;;;5037537;28;20043;-69
2022/12/19 05:27:14;;;;;;;16.08;8.65;;;3.20;99.90;;;;;;5037477;28;20049;-70
2022/12/19 05:29:40;;;;;;;14.20;6.60;;;3.20;99.90;;;;;;5037615;28;20040;-69
2022/12/19 05:32:05;;;;;;;9.52;5.10;;;3.20;99.90;;;;;;5037592;28;20076;-70
2022/12/19 05:34:31;;;;;;;22.08;9.70;;;3.30;99.90;;;;;;5055450;28;20044;-69
2022/12/19 05:36:57;;;;;;;17.33;7.60;;;3.20;99.90;;;;;;5037681;28;20084;-70
2022/12/19 05:39:23;;;;;;;17.15;8.88;;;3.30;99.90;;;;;;5037521;28;20033;-70
2022/12/19 05:41:49;;;;;;;3.90;2.92;;;3.30;99.90;;;;;;5037135;28;20385;-71
2022/12/19 05:44:14;;;;;;;12.90;8.25;;;3.30;99.90;;;;;;5037436;28;20048;-69
2022/12/19 05:46:40;;;;;;;11.90;8.15;;;3.30;99.90;;;;;;5036965;28;20040;-70
2022/12/19 05:49:06;;;;;;;6.47;5.47;;;3.40;99.90;;;;;;5036946;28;20079;-71
2022/12/19 05:51:31;;;;;;;12.32;7.18;;;3.40;99.90;;;;;;5020337;28;20079;-70
2022/12/19 05:53:59;;;;;;;18.05;9.27;;;3.50;99.90;;;;;;5020785;28;20519;-75
2022/12/19 05:56:25;;;;;;;12.40;7.63;;;3.50;99.90;;;;;;5021128;28;20037;-70
2022/12/19 05:58:50;;;;;;;12.93;7.82;;;3.50;99.90;;;;;;5036816;28;20048;-72
2022/12/19 06:01:21;;;;;;;9.13;6.30;;;3.50;99.90;;;;;;5036777;28;20037;-73
2022/12/19 06:03:48;;;;;;;12.23;6.97;;;3.60;99.90;;;;;;5036769;28;20450;-72
2022/12/19 06:06:16;;;;;;;12.38;6.63;;;3.70;99.90;;;;;;5036506;28;20045;-72
2022/12/19 06:08:41;;;;;;;16.15;7.13;;;3.60;99.90;;;;;;5036653;28;20051;-72
2022/12/19 06:11:09;;;;;;;11.52;7.60;;;3.60;99.90;;;;;;5036674;28;20045;-72
2022/12/19 06:13:35;;;;;;;14.25;7.60;;;3.70;99.90;;;;;;5053460;28;20480;-70
2022/12/19 06:16:15;;;;;;;14.73;7.32;;;3.70;99.90;;;;;;5036573;28;20434;-72
2022/12/19 06:18:43;;;;;;;12.95;5.63;;;3.70;99.90;;;;;;5019961;28;20044;-72
2022/12/19 06:21:14;;;;;;;17.42;8.23;;;3.80;99.90;;;;;;5054598;28;20447;-74
2022/12/19 06:23:41;;;;;;;8.70;6.40;;;3.90;99.90;;;;;;5036657;28;20116;-72
2022/12/19 06:26:07;;;;;;;12.10;6.43;;;3.90;99.90;;;;;;5036620;28;20484;-71
2022/12/19 06:28:34;;;;;;;8.35;5.43;;;3.90;99.90;;;;;;5036216;28;20044;-73
2022/12/19 06:31:03;;;;;;;15.32;7.35;;;4.00;99.90;;;;;;5036278;28;20103;-73
2022/12/19 06:33:29;;;;;;;7.10;5.93;;;4.30;99.90;;;;;;5036136;28;20048;-71
2022/12/19 06:35:59;;;;;;;16.92;7.63;;;4.10;99.90;;;;;;5019794;28;20036;-72
2022/12/19 06:38:26;;;;;;;7.57;2.88;;;4.10;99.90;;;;;;5036046;28;20124;-71
2022/12/19 06:43:36;;;;;;;7.78;4.85;;;4.10;99.90;;;;;;5053774;28;20045;-72
2022/12/19 06:46:01;;;;;;;7.05;5.43;;;4.20;99.90;;;;;;5035948;28;20041;-71
2022/12/19 06:48:27;;;;;;;11.50;6.05;;;4.20;99.90;;;;;;5019432;28;20480;-70
2022/12/19 06:50:52;;;;;;;8.75;4.72;;;4.80;99.90;;;;;;5053724;28;20116;-71
2022/12/19 06:53:18;;;;;;;8.85;4.25;;;4.20;99.90;;;;;;5036179;28;20488;-71
2022/12/19 06:55:49;;;;;;;11.40;5.93;;;4.30;99.90;;;;;;5035748;28;20162;-71
2022/12/19 06:58:14;;;;;;;16.40;5.37;;;4.30;99.90;;;;;;5035806;28;20124;-69
2022/12/19 07:00:40;;;;;;;6.90;4.53;;;4.20;99.90;;;;;;5053796;28;20351;-68
2022/12/19 07:03:09;;;;;;;7.10;4.50;;;4.30;99.90;;;;;;5053730;28;20061;-68
2022/12/19 07:05:35;;;;;;;11.40;5.78;;;4.30;99.90;;;;;;5053416;28;20084;-68
2022/12/19 07:08:02;;;;;;;9.27;4.70;;;4.30;99.90;;;;;;5035500;28;20053;-70
2022/12/19 07:10:28;;;;;;;12.35;5.80;;;4.40;99.90;;;;;;5053602;28;20041;-68
2022/12/19 07:12:54;;;;;;;9.20;4.68;;;4.40;99.90;;;;;;5035470;28;20484;-68
2022/12/19 07:15:19;;;;;;;8.68;5.65;;;4.40;99.90;;;;;;5035511;28;20087;-67
2022/12/19 07:17:45;;;;;;;9.35;5.15;;;4.40;99.90;;;;;;5035439;28;20472;-69
2022/12/19 07:20:12;;;;;;;11.77;5.35;;;4.40;99.90;;;;;;5053299;28;20116;-69
2022/12/19 07:22:38;;;;;;;10.88;5.75;;;4.40;99.90;;;;;;5053287;28;20388;-68
2022/12/19 07:25:05;;;;;;;13.13;5.25;;;4.50;99.90;;;;;;5035505;28;20047;-68
2022/12/19 07:27:31;;;;;;;5.75;4.85;;;4.50;99.90;;;;;;5035229;28;20067;-69
2022/12/19 07:29:56;;;;;;;8.75;3.78;;;4.50;99.90;;;;;;5035455;28;20049;-68
2022/12/19 07:32:22;;;;;;;7.40;5.10;;;4.50;99.90;;;;;;5035311;28;20127;-69
2022/12/19 07:34:48;;;;;;;9.68;4.63;;;4.50;99.90;;;;;;5035085;28;20036;-69
2022/12/19 07:37:13;;;;;;;10.02;5.07;;;4.50;99.90;;;;;;5035147;28;20041;-68
2022/12/19 07:39:39;;;;;;;8.82;5.05;;;4.50;99.90;;;;;;5052575;28;20064;-68
2022/12/19 07:42:04;;;;;;;8.60;4.32;;;4.60;99.90;;;;;;5053037;28;20033;-69
2022/12/19 07:44:30;;;;;;;9.52;5.28;;;4.60;99.90;;;;;;5035258;28;20090;-69
2022/12/19 07:46:56;;;;;;;8.88;4.80;;;4.60;99.90;;;;;;5018824;28;20037;-68
2022/12/19 07:49:21;;;;;;;9.80;5.63;;;4.70;99.90;;;;;;5053147;28;20116;-68
2022/12/19 07:51:47;;;;;;;9.75;4.63;;;4.60;99.90;;;;;;5052906;28;20049;-69
2022/12/19 07:54:13;;;;;;;7.05;4.05;;;4.60;99.90;;;;;;5053019;28;20522;-70
2022/12/19 07:56:39;;;;;;;7.82;3.97;;;5.10;99.90;;;;;;5052735;28;20116;-68
2022/12/19 07:59:04;;;;;;;5.55;3.85;;;4.70;99.90;;;;;;5034642;28;20461;-69
2022/12/19 08:01:30;;;;;;;7.55;4.20;;;4.80;99.90;;;;;;5052512;28;20039;-68
2022/12/19 08:03:56;;;;;;;6.13;4.18;;;4.80;99.90;;;;;;5034623;28;20488;-69
2022/12/19 08:06:22;;;;;;;8.15;5.03;;;5.00;99.90;;;;;;5052375;28;20111;-69
2022/12/19 08:08:48;;;;;;;8.55;5.28;;;4.80;99.90;;;;;;5034631;28;20056;-69
2022/12/19 08:11:16;;;;;;;9.15;4.50;;;4.80;99.90;;;;;;5052648;28;20049;-70
2022/12/19 08:13:42;;;;;;;9.38;4.20;;;4.80;99.90;;;;;;5034581;28;20411;-69
2022/12/19 08:16:08;;;;;;;6.25;3.72;;;4.80;99.90;;;;;;5034566;28;20037;-70
2022/12/19 08:18:34;;;;;;;9.82;5.30;;;;;;;;;;5034552;28;20048;-69
2022/12/19 08:21:00;;;;;;;8.18;4.78;;;5.10;99.90;;;;;;5034786;28;20502;-69
2022/12/19 08:23:25;;;;;;;3.20;2.55;;;5.00;99.90;;;;;;5052675;28;20037;-69
2022/12/19 08:25:59;;;;;;;9.00;5.18;;;5.00;99.90;;;;;;5034485;28;20052;-70
2022/12/19 08:28:25;;;;;;;6.35;4.22;;;;;;;;;;5034714;28;20051;-69
2022/12/19 08:30:50;;;;;;;8.07;3.67;;;5.10;99.90;;;;;;5034429;28;20105;-68
2022/12/19 08:33:16;;;;;;;5.43;3.33;;;5.10;99.90;;;;;;5034744;28;20045;-69
2022/12/19 08:35:41;;;;;;;8.30;3.75;;;5.20;99.90;;;;;;5052483;28;20037;-69
2022/12/19 08:38:07;;;;;;;7.72;3.05;;;5.20;99.90;;;;;;5034405;28;20041;-69
2022/12/19 08:40:33;;;;;;;9.25;3.45;;;5.20;99.90;;;;;;5052316;28;20055;-69
2022/12/19 08:42:58;;;;;;;6.60;3.97;;;5.30;99.90;;;;;;5052401;28;20249;-69
2022/12/19 08:45:24;;;;;;;5.32;3.08;;;3.80;99.90;;;;;;5051477;28;20045;-71
2022/12/19 08:47:50;;;;;;;5.68;3.58;;;;;;;;;;5033604;28;20400;-69
2022/12/19 08:50:15;;;;;;;7.95;3.65;;;5.40;99.90;;;;;;5033359;28;20111;-70
2022/12/19 08:52:41;;;;;;;7.65;3.55;;;5.40;99.90;;;;;;5036802;28;20052;-70
2022/12/19 08:55:08;;;;;;;6.43;3.83;;;5.40;99.90;;;;;;5036964;28;20084;-69
2022/12/19 08:57:34;;;;;;;6.47;3.50;;;5.50;99.90;;;;;;5037057;28;20112;-70
2022/12/19 09:00:00;;;;;;;7.10;4.10;;;5.50;99.90;;;;;;5037204;28;20045;-70
2022/12/19 09:02:25;;;;;;;6.03;3.47;;;5.50;99.90;;;;;;5020506;28;20112;-69
2022/12/19 09:04:51;;;;;;;5.22;3.80;;;5.60;99.90;;;;;;5036917;28;20115;-69
2022/12/19 09:07:16;;;;;;;6.53;4.35;;;5.60;99.90;;;;;;5055073;28;20087;-71
2022/12/19 09:09:45;;;;;;;6.80;3.75;;;5.70;99.90;;;;;;5036917;28;20041;-70
2022/12/19 09:12:13;;;;;;;7.50;4.53;;;5.80;99.90;;;;;;5037081;28;20037;-70
2022/12/19 09:14:38;;;;;;;4.68;3.22;;;5.80;99.90;;;;;;5036716;28;20041;-70
2022/12/19 09:17:04;;;;;;;9.63;4.07;;;6.10;99.90;;;;;;5054523;28;20045;-70
2022/12/19 09:19:30;;;;;;;6.90;3.90;;;;;;;;;;5054725;28;20033;-70
2022/12/19 09:21:55;;;;;;;5.38;3.80;;;5.90;99.90;;;;;;5036827;28;20041;-70
2022/12/19 09:24:21;;;;;;;5.93;4.30;;;6.00;99.90;;;;;;5054739;28;20044;-69
2022/12/19 09:26:46;;;;;;;10.20;4.63;;;6.10;99.90;;;;;;5036503;28;20041;-70
2022/12/19 09:29:12;;;;;;;8.23;4.35;;;6.10;99.90;;;;;;5054609;28;20033;-70
2022/12/19 09:31:38;;;;;;;8.88;4.43;;;6.30;99.90;;;;;;5036436;28;20072;-70
2022/12/19 09:34:04;;;;;;;6.15;3.95;;;6.10;99.90;;;;;;5054597;28;20049;-70
2022/12/19 09:36:30;;;;;;;8.00;5.20;;;6.20;99.90;;;;;;5036665;28;20563;-69
2022/12/19 09:38:56;;;;;;;6.55;4.07;;;6.30;99.90;;;;;;5036275;28;20037;-71
2022/12/19 09:41:57;;;;;;;10.00;5.00;;;6.40;99.90;;;;;;5054037;28;20036;-69
2022/12/19 09:45:00;;;;;;;7.93;5.15;;;6.50;99.90;;;;;;5054244;28;20087;-70
2022/12/19 09:47:29;;;;;;;6.32;3.50;;;6.30;99.90;;;;;;4996315;28;20048;-70
2022/12/19 09:49:57;;;;;;;7.70;4.22;;;6.60;99.90;;;;;;5036242;28;20155;-69
2022/12/19 09:52:32;;;;;;;10.63;5.82;;;6.30;99.90;;;;;;5036043;28;20423;-70
2022/12/19 09:55:22;;;;;;;9.23;4.68;;;6.50;99.90;;;;;;5054189;28;20080;-69
2022/12/19 09:58:00;;;;;;;7.63;5.32;;;6.60;99.90;;;;;;5054092;28;20530;-70
2022/12/19 10:00:32;;;;;;;6.80;4.43;;;6.60;99.90;;;;;;5054047;28;20041;-70
2022/12/19 10:03:24;;;;;;;13.50;5.47;;;6.70;99.90;;;;;;5035628;28;20057;-69
2022/12/19 10:06:18;;;;;;;8.13;4.60;;;6.70;99.90;;;;;;5053655;28;20057;-70
2022/12/19 10:08:44;;;;;;;10.95;5.05;;;6.70;99.90;;;;;;5053839;28;20052;-69
2022/12/19 10:11:16;;;;;;;12.50;5.57;;;6.80;99.90;;;;;;5035768;28;20037;-69
2022/12/19 10:14:09;;;;;;;7.20;4.72;;;6.80;99.90;;;;;;5019825;28;20045;-70
2022/12/19 10:17:10;;;;;;;9.13;4.70;;;6.80;99.90;;;;;;5035693;28;20083;-69
2022/12/19 10:20:01;;;;;;;7.30;4.17;;;6.70;99.90;;;;;;5035751;28;20045;-69
2022/12/19 10:22:27;;;;;;;6.38;3.80;;;6.80;99.90;;;;;;5020997;28;20045;-69
2022/12/19 10:24:52;;;;;;;6.47;4.50;;;6.90;99.90;;;;;;5035477;28;20045;-69
2022/12/19 10:27:30;;;;;;;5.65;3.60;;;;;;;;;;5035706;28;20076;-70
2022/12/19 10:30:00;;;;;;;7.45;4.03;;;;;;;;;;5053468;28;20447;-69
2022/12/19 10:32:46;;;;;;;7.45;4.10;;;7.00;99.90;;;;;;5053460;28;20112;-69
2022/12/19 10:35:17;;;;;;;6.40;4.18;;;6.90;99.90;;;;;;5053124;28;20045;-69
2022/12/19 10:37:49;;;;;;;;;;;6.90;99.90;;;;;;5035644;28;20045;-70
2022/12/19 10:40:31;;;;;;;8.80;4.32;;;6.90;99.90;;;;;;5053314;28;19917;-70
2022/12/19 10:42:56;;;;;;;;;;;7.00;99.90;;;;;;5053816;28;20095;-69
2022/12/19 10:45:26;;;;;;;5.80;3.88;;;7.00;99.90;;;;;;5053034;28;19995;-68
2022/12/19 10:47:57;;;;;;;5.43;3.90;;;7.00;99.90;;;;;;5035189;28;20041;-69
2022/12/19 10:50:26;;;;;;;7.72;4.13;;;6.90;99.90;;;;;;5035012;28;20048;-68
2022/12/19 10:53:09;;;;;;;5.38;3.20;;;6.90;99.90;;;;;;5053080;28;20411;-69
2022/12/19 10:55:38;;;;;;;9.10;4.18;;;7.00;99.90;;;;;;5052601;28;20045;-70
2022/12/19 10:58:12;;;;;;;8.48;4.53;;;7.10;99.90;;;;;;5052882;28;20041;-69
2022/12/19 11:01:00;;;;;;;7.72;4.30;;;7.00;99.90;;;;;;5053028;28;20049;-69
2022/12/19 11:03:26;;;;;;;6.90;2.90;;;7.10;99.90;;;;;;5052591;28;20041;-69
2022/12/19 11:05:56;;;;;;;4.97;3.28;;;7.10;99.90;;;;;;5052460;28;20103;-69
2022/12/19 11:08:35;;;;;;;3.95;2.53;;;7.10;99.90;;;;;;5052335;28;20036;-70
2022/12/19 11:11:04;;;;;;;7.55;4.10;;;7.10;99.90;;;;;;5052577;28;20036;-69
2022/12/19 11:13:35;;;;;;;10.73;4.47;;;7.10;99.90;;;;;;5052472;28;20049;-69
2022/12/19 11:16:03;;;;;;;4.78;3.50;;;7.20;99.90;;;;;;5033991;28;20049;-68
2022/12/19 11:18:40;;;;;;;7.22;4.63;;;7.20;99.90;;;;;;5052493;28;20072;-68
2022/12/19 11:21:27;;;;;;;6.88;4.72;;;7.20;99.90;;;;;;5034662;28;20076;-70
2022/12/19 11:23:58;;;;;;;6.57;3.88;;;7.20;99.90;;;;;;5034371;28;20118;-68
2022/12/19 11:26:44;;;;;;;11.60;4.78;;;7.20;99.90;;;;;;5052472;28;20506;-71
2022/12/19 11:29:46;;;;;;;6.05;3.63;;;7.30;99.90;;;;;;5034494;28;20133;-67
2022/12/19 11:32:37;;;;;;;7.55;4.90;;;7.30;99.90;;;;;;5034949;28;20056;-69
2022/12/19 11:35:05;;;;;;;;;;;7.30;99.90;;;;;;5034431;28;20134;-68
2022/12/19 11:37:59;;;;;;;5.03;3.40;;;7.30;99.90;;;;;;5033804;28;19927;-69
2022/12/19 11:40:54;;;;;;;6.97;3.88;;;7.30;99.90;;;;;;5031054;28;20118;-69
2022/12/19 11:43:36;;;;;;;9.13;4.05;;;7.30;99.90;;;;;;5049738;28;20045;-68
2022/12/19 11:46:05;;;;;;;6.95;4.03;;;7.40;99.90;;;;;;5033767;28;20041;-70
2022/12/19 11:48:46;;;;;;;6.30;4.18;;;7.40;99.90;;;;;;5033722;28;20045;-69
2022/12/19 11:51:39;;;;;;;5.82;3.25;;;7.40;99.90;;;;;;5033887;28;20060;-68
2022/12/19 11:54:21;;;;;;;5.20;3.45;;;7.40;99.90;;;;;;5051767;28;20067;-68
2022/12/19 11:56:46;;;;;;;5.75;3.65;;;7.40;99.90;;;;;;5034070;28;20045;-68
2022/12/19 11:59:19;;;;;;;6.05;4.05;;;7.50;99.90;;;;;;5051662;28;20106;-68
2022/12/19 12:01:58;;;;;;;5.25;3.50;;;7.40;99.90;;;;;;5033528;28;20099;-69
2022/12/19 12:04:35;;;;;;;6.97;4.47;;;7.50;99.90;;;;;;5051391;28;20033;-68
2022/12/19 12:07:03;;;;;;;6.18;4.25;;;7.40;99.90;;;;;;5033744;28;20045;-68
2022/12/19 12:09:45;;;;;;;6.72;3.85;;;7.50;99.90;;;;;;5051715;28;20063;-68
2022/12/19 12:12:30;;;;;;;5.55;3.63;;;7.50;99.90;;;;;;5033961;28;20045;-68
2022/12/19 12:15:22;;;;;;;8.60;3.72;;;7.40;99.90;;;;;;5050478;28;20542;-68
2022/12/19 12:18:11;;;;;;;8.10;4.30;;;7.50;99.90;;;;;;5052291;28;20068;-68
2022/12/19 12:20:55;;;;;;;9.57;3.83;;;7.50;99.90;;;;;;5053039;28;20040;-68
2022/12/19 12:23:40;;;;;;;9.35;3.90;;;7.50;99.90;;;;;;5052742;28;20056;-68
2022/12/19 12:26:17;;;;;;;8.50;4.20;;;7.50;99.90;;;;;;5036012;28;20041;-68
2022/12/19 12:29:02;;;;;;;6.00;3.75;;;7.50;99.90;;;;;;5056345;28;20044;-69
2022/12/19 12:31:34;;;;;;;5.65;3.60;;;7.50;99.90;;;;;;5038390;28;20511;-68
2022/12/19 12:34:16;;;;;;;8.65;4.45;;;7.60;99.90;;;;;;5056585;28;20033;-68
2022/12/19 12:37:20;;;;;;;8.45;3.97;;;7.60;99.90;;;;;;5056234;28;20037;-69
2022/12/19 12:40:06;;;;;;;4.18;3.47;;;7.60;99.90;;;;;;5056558;28;20396;-69
2022/12/19 12:42:58;;;;;;;8.80;4.13;;;7.60;99.90;;;;;;5038522;28;20045;-68
2022/12/19 12:45:40;;;;;;;8.85;4.20;;;7.60;99.90;;;;;;5038310;28;20537;-68
2022/12/19 12:48:23;;;;;;;5.07;3.75;;;7.60;99.90;;;;;;5038523;28;20127;-69
2022/12/19 12:50:50;;;;;;;6.13;3.70;;;7.70;99.90;;;;;;5056363;28;20048;-69
2022/12/19 12:53:18;;;;;;;4.53;3.22;;;7.70;99.90;;;;;;5056245;28;20045;-68
2022/12/19 12:55:44;;;;;;;6.15;3.13;;;7.80;99.90;;;;;;5056261;28;20045;-68
2022/12/19 12:58:43;;;;;;;5.22;4.03;;;7.80;99.90;;;;;;5038019;28;20084;-68
2022/12/19 13:01:15;;;;;;;9.10;4.85;;;7.80;99.90;;;;;;5038284;28;20037;-68
2022/12/19 13:03:57;;;;;;;7.03;4.10;;;7.80;99.90;;;;;;5038195;28;20040;-69
2022/12/19 13:06:25;;;;;;;5.57;3.65;;;7.80;99.90;;;;;;5037880;28;20056;-69
2022/12/19 13:09:12;;;;;;;7.65;4.40;;;7.80;99.90;;;;;;5037776;28;20048;-68
2022/12/19 13:14:49;;;;;;;5.70;3.78;;;7.80;99.90;;;;;;5055591;28;20056;-69
2022/12/19 13:17:43;;;;;;;3.80;3.03;;;7.80;99.90;;;;;;5055589;28;20045;-68
2022/12/19 13:20:09;;;;;;;5.05;3.15;;;7.80;99.90;;;;;;5055391;28;20467;-69
2022/12/19 13:22:34;;;;;;;9.25;4.38;;;7.80;99.90;;;;;;5055369;28;20040;-68
2022/12/19 13:25:00;;;;;;;5.85;3.70;;;7.80;99.90;;;;;;5055686;28;20033;-69
2022/12/19 13:27:39;;;;;;;5.53;3.50;;;7.90;99.90;;;;;;5055672;28;20049;-68